Terminal Aerodrome Forecast
Issued by NWS

Home | Current Version | Previous Version | Text Only | Print | Product List | Glossary On
Versions: 1 2 3 4 5 6 7 8 9 10 11 12 13 14 15 16
000
FTUS43 KGRB 241500 AAA
TAFRHI
TAF AMD
KRHI 241501Z 2415/2512 11011G16KT 5SM -RASN SCT015 OVC025
      TEMPO 2415/2417 1 1/2SM -RASN BR OVC015
     FM242000 11012G20KT 3SM -RASN BR SCT005 OVC012
      TEMPO 2420/2424 1SM -SN BR BKN005
     FM250000 12008KT 2SM -RASN BR BKN003 OVC010
     FM250800 29007KT 6SM BR SCT010 BKN020=

USA.gov is the U.S. government's official web portal to all federal, state and local government web resources and services.